createdAt,value
2019-03-23T00:00:22.699Z,10.00
2019-03-23T00:02:50.546Z,10.17
2019-03-23T00:05:18.571Z,10.43
2019-03-23T00:07:46.544Z,9.47
2019-03-23T00:10:18.321Z,9.87
2019-03-23T00:12:46.173Z,9.10
2019-03-23T00:15:14.554Z,9.10
2019-03-23T00:17:42.376Z,8.53
2019-03-23T00:20:10.226Z,9.67
2019-03-23T00:22:38.081Z,9.00
2019-03-23T00:25:06.221Z,9.60
2019-03-23T00:27:34.240Z,9.40
2019-03-23T00:30:02.329Z,9.33
2019-03-23T00:32:30.194Z,8.97
2019-03-23T00:34:57.784Z,9.13
2019-03-23T00:37:25.672Z,9.40
2019-03-23T00:39:53.688Z,8.47
2019-03-23T00:42:21.677Z,8.20
2019-03-23T00:44:49.555Z,7.87
2019-03-23T00:47:17.396Z,8.77
2019-03-23T00:49:45.293Z,8.37
2019-03-23T00:52:13.273Z,8.67
2019-03-23T00:54:41.275Z,7.83
2019-03-23T00:57:09.264Z,7.97
2019-03-23T00:59:37.205Z,8.00
2019-03-23T01:02:05.258Z,7.80
2019-03-23T01:04:33.196Z,8.30
2019-03-23T01:07:01.117Z,8.37
2019-03-23T01:09:29.115Z,8.43
2019-03-23T01:11:56.714Z,8.43
2019-03-23T01:14:24.612Z,8.47
2019-03-23T01:16:52.614Z,8.63
2019-03-23T01:19:20.438Z,8.63
2019-03-23T01:21:48.253Z,8.97
2019-03-23T01:24:16.093Z,9.07
2019-03-23T01:26:43.952Z,8.70
2019-03-23T01:29:11.573Z,8.93
2019-03-23T01:31:39.442Z,9.07
2019-03-23T01:34:07.252Z,9.10
2019-03-23T01:36:35.314Z,7.97
2019-03-23T01:39:04.957Z,8.23
2019-03-23T01:41:32.939Z,8.63
2019-03-23T01:44:00.899Z,8.37
2019-03-23T01:46:28.876Z,8.40
2019-03-23T01:48:56.706Z,8.30
2019-03-23T01:51:24.791Z,8.10
2019-03-23T01:53:52.631Z,8.73
2019-03-23T01:56:20.652Z,9.80
2019-03-23T01:58:48.995Z,8.20
2019-03-23T02:01:16.731Z,8.70
2019-03-23T02:03:44.710Z,8.33
2019-03-23T02:06:12.446Z,9.23
2019-03-23T02:08:40.261Z,8.50
2019-03-23T02:11:08.207Z,9.10
2019-03-23T02:13:36.149Z,8.37
2019-03-23T02:16:04.113Z,8.50
2019-03-23T02:18:31.960Z,8.10
2019-03-23T02:21:00.446Z,8.73
2019-03-23T02:23:28.298Z,9.07
2019-03-23T02:25:56.186Z,9.03
2019-03-23T02:28:24.020Z,8.43
2019-03-23T02:30:51.975Z,8.87
2019-03-23T02:33:19.931Z,9.67
2019-03-23T02:35:47.908Z,8.67
2019-03-23T02:38:15.960Z,8.50
2019-03-23T02:40:43.934Z,8.37
2019-03-23T02:43:11.536Z,8.47
2019-03-23T02:45:39.433Z,7.67
2019-03-23T02:48:07.466Z,8.00
2019-03-23T02:50:35.461Z,9.00
2019-03-23T02:53:03.417Z,8.27
2019-03-23T02:55:31.668Z,8.70
2019-03-23T02:57:59.756Z,8.00
2019-03-23T03:00:27.951Z,8.33
2019-03-23T03:02:55.948Z,7.97
2019-03-23T03:05:23.631Z,8.43
2019-03-23T03:07:51.581Z,8.03
2019-03-23T03:10:50.941Z,7.83
2019-03-23T03:13:18.589Z,7.73
2019-03-23T03:15:50.434Z,7.73
2019-03-23T03:18:18.279Z,7.93
2019-03-23T03:20:46.218Z,7.27
2019-03-23T03:23:14.286Z,8.17
2019-03-23T03:25:42.260Z,8.20
2019-03-23T03:28:10.194Z,7.80
2019-03-23T03:30:38.850Z,7.40
2019-03-23T03:33:06.991Z,7.70
2019-03-23T03:35:34.921Z,7.87
2019-03-23T03:38:02.573Z,7.37
2019-03-23T03:40:30.497Z,7.57
2019-03-23T03:42:58.376Z,8.43
2019-03-23T03:45:26.848Z,7.53
2019-03-23T03:47:54.943Z,7.53
2019-03-23T03:50:22.964Z,8.60
2019-03-23T03:52:52.833Z,8.37
2019-03-23T03:55:20.764Z,8.20
2019-03-23T03:57:49.299Z,7.30
2019-03-23T04:00:17.186Z,7.03
2019-03-23T04:02:44.811Z,7.83
2019-03-23T04:08:10.909Z,7.30
2019-03-23T04:10:30.079Z,7.10
2019-03-23T04:12:58.071Z,7.40
2019-03-23T04:15:25.726Z,7.77
2019-03-23T04:17:53.768Z,8.23
2019-03-23T04:20:21.685Z,7.07
2019-03-23T04:22:49.272Z,7.87
2019-03-23T04:25:17.129Z,8.07
2019-03-23T04:27:52.267Z,7.87
2019-03-23T04:30:20.195Z,8.87
2019-03-23T04:32:48.073Z,7.23
2019-03-23T04:35:16.027Z,7.47
2019-03-23T04:37:43.799Z,7.97
2019-03-23T04:40:12.072Z,8.17
2019-03-23T04:42:40.851Z,7.13
2019-03-23T04:45:09.169Z,7.80
2019-03-23T04:47:37.080Z,8.27
2019-03-23T04:50:05.893Z,7.50
2019-03-23T04:52:33.857Z,7.73
2019-03-23T04:55:01.712Z,7.63
2019-03-23T04:57:43.713Z,8.20
2019-03-23T05:00:09.659Z,7.40
2019-03-23T05:02:37.523Z,8.10
2019-03-23T05:05:05.074Z,8.27
2019-03-23T05:07:32.675Z,8.00
2019-03-23T05:10:00.237Z,8.07
2019-03-23T05:12:28.348Z,7.90
2019-03-23T05:14:56.130Z,8.03
2019-03-23T05:17:24.016Z,8.53
2019-03-23T05:19:52.889Z,7.87
2019-03-23T05:22:20.786Z,8.10
2019-03-23T05:24:48.402Z,8.67
2019-03-23T05:27:16.272Z,7.70
2019-03-23T05:29:44.102Z,7.77
2019-03-23T05:32:12.012Z,8.57
2019-03-23T05:34:39.818Z,8.10
2019-03-23T05:37:07.355Z,7.30
2019-03-23T05:39:35.173Z,7.77
2019-03-23T05:42:03.005Z,8.83
2019-03-23T05:44:30.623Z,8.17
2019-03-23T05:46:58.504Z,7.40
2019-03-23T05:49:26.467Z,7.70
2019-03-23T05:51:54.071Z,8.27
2019-03-23T05:54:21.690Z,7.77
2019-03-23T05:56:49.656Z,7.80
2019-03-23T05:59:17.566Z,9.10
2019-03-23T06:01:46.184Z,8.37
2019-03-23T06:04:14.223Z,10.07
2019-03-23T06:06:42.197Z,8.30
2019-03-23T06:09:10.436Z,8.47
2019-03-23T06:11:38.356Z,7.50
2019-03-23T06:14:06.112Z,7.73
2019-03-23T06:16:33.992Z,8.40
2019-03-23T06:19:02.005Z,7.27
2019-03-23T06:21:29.882Z,8.10
2019-03-23T06:23:57.513Z,7.50
2019-03-23T06:26:26.612Z,7.23
2019-03-23T06:28:54.358Z,7.70
2019-03-23T06:31:22.386Z,9.93
2019-03-23T06:33:50.326Z,7.93
2019-03-23T06:36:17.976Z,7.53
2019-03-23T06:38:45.813Z,7.70
2019-03-23T06:41:13.652Z,8.37
2019-03-23T06:43:41.354Z,8.40
2019-03-23T06:46:09.207Z,7.30
2019-03-23T06:48:37.051Z,8.13
2019-03-23T06:51:04.880Z,8.10
2019-03-23T06:53:32.817Z,7.27
2019-03-23T06:56:00.337Z,8.00
2019-03-23T06:58:28.109Z,7.83
2019-03-23T07:00:55.978Z,7.73
2019-03-23T07:03:23.917Z,8.33
2019-03-23T07:05:51.959Z,8.10
2019-03-23T07:08:19.851Z,7.63
2019-03-23T07:10:47.723Z,7.90
2019-03-23T07:13:15.644Z,7.73
2019-03-23T07:15:43.628Z,8.17
2019-03-23T07:18:11.500Z,7.77
2019-03-23T07:20:39.387Z,7.77
2019-03-23T07:23:07.443Z,7.80
2019-03-23T07:25:35.294Z,8.07
2019-03-23T07:28:03.158Z,7.87
2019-03-23T07:30:31.976Z,7.87
2019-03-23T07:32:59.863Z,7.23
2019-03-23T07:35:27.792Z,7.93
2019-03-23T07:37:55.420Z,7.67
2019-03-23T07:40:23.326Z,8.00
2019-03-23T07:42:51.205Z,7.60
2019-03-23T07:45:19.337Z,7.33
2019-03-23T07:47:47.785Z,7.83
2019-03-23T07:50:15.904Z,8.10
2019-03-23T07:52:43.821Z,7.77
2019-03-23T07:55:12.804Z,7.30
2019-03-23T07:57:40.971Z,7.70
2019-03-23T08:00:10.232Z,8.53
2019-03-23T08:02:39.048Z,7.70
2019-03-23T08:05:07.336Z,8.00
2019-03-23T08:07:35.606Z,8.87
2019-03-23T08:10:03.863Z,8.83
2019-03-23T08:12:31.929Z,7.60
2019-03-23T08:15:00.120Z,7.60
2019-03-23T08:17:28.410Z,7.60
2019-03-23T08:19:56.431Z,8.33
2019-03-23T08:22:24.389Z,8.53
2019-03-23T08:24:52.408Z,8.97
2019-03-23T08:27:20.407Z,8.87
2019-03-23T08:29:48.536Z,10.40
2019-03-23T08:32:18.960Z,9.00
2019-03-23T08:34:47.168Z,9.60
2019-03-23T08:37:15.200Z,10.93
2019-03-23T08:39:48.542Z,10.60
2019-03-23T08:42:16.322Z,12.13
2019-03-23T08:44:44.548Z,12.97
2019-03-23T08:47:12.600Z,13.93
2019-03-23T08:49:40.635Z,10.93
2019-03-23T08:52:08.783Z,12.53
2019-03-23T08:54:36.784Z,12.23
2019-03-23T08:57:04.661Z,12.20
2019-03-23T08:59:32.715Z,12.47
2019-03-23T09:02:00.724Z,12.37
2019-03-23T09:04:28.642Z,12.40
2019-03-23T09:06:56.679Z,14.40
2019-03-23T09:09:24.708Z,13.37
2019-03-23T09:11:52.968Z,12.93
2019-03-23T09:14:23.365Z,12.07
2019-03-23T09:16:50.817Z,12.53
2019-03-23T09:19:18.934Z,12.33
2019-03-23T09:21:46.822Z,12.87
2019-03-23T09:24:14.757Z,13.53
2019-03-23T09:26:42.617Z,12.87
2019-03-23T09:29:10.503Z,12.70
2019-03-23T09:31:38.488Z,11.63
2019-03-23T09:34:06.440Z,11.07
2019-03-23T09:36:34.364Z,11.97
2019-03-23T09:39:21.648Z,11.83
2019-03-23T09:41:51.042Z,11.97
2019-03-23T09:44:19.467Z,12.73
2019-03-23T09:46:47.384Z,13.97
2019-03-23T09:49:15.392Z,13.53
2019-03-23T09:51:43.407Z,14.07
2019-03-23T09:54:11.451Z,14.07
2019-03-23T09:56:39.508Z,14.60
2019-03-23T09:59:08.291Z,14.03
2019-03-23T10:01:37.707Z,15.00
2019-03-23T10:04:06.705Z,14.80
2019-03-23T10:06:35.137Z,14.97
2019-03-23T10:09:05.824Z,15.53
2019-03-23T10:11:33.721Z,14.80
2019-03-23T10:14:03.189Z,14.33
2019-03-23T10:17:07.880Z,14.40
2019-03-23T10:19:35.943Z,14.27
2019-03-23T10:22:04.036Z,15.13
2019-03-23T10:24:31.897Z,16.37
2019-03-23T10:26:59.802Z,15.30
2019-03-23T10:29:27.951Z,16.20
2019-03-23T10:31:55.919Z,17.20
2019-03-23T10:34:23.923Z,16.10
2019-03-23T10:36:52.388Z,16.33
2019-03-23T10:39:20.682Z,15.67
2019-03-23T10:41:48.730Z,17.27
2019-03-23T10:44:16.693Z,16.73
2019-03-23T10:46:44.454Z,16.10
2019-03-23T10:49:12.414Z,17.63
2019-03-23T10:51:40.300Z,18.07
2019-03-23T10:54:08.144Z,17.63
2019-03-23T10:56:36.148Z,16.80
2019-03-23T10:59:04.152Z,16.20
2019-03-23T11:01:32.160Z,15.77
2019-03-23T11:04:00.255Z,16.13
2019-03-23T11:06:28.167Z,17.40
2019-03-23T11:08:56.102Z,17.13
2019-03-23T11:11:24.038Z,16.20
2019-03-23T11:13:53.958Z,16.27
2019-03-23T11:16:21.952Z,16.50
2019-03-23T11:18:50.386Z,16.27
2019-03-23T11:21:18.561Z,17.13
2019-03-23T11:23:46.663Z,17.00
2019-03-23T11:26:14.706Z,16.97
2019-03-23T11:28:42.695Z,16.10
2019-03-23T11:31:10.532Z,16.40
2019-03-23T11:33:38.519Z,16.77
2019-03-23T11:36:06.819Z,17.43
2019-03-23T11:38:35.222Z,16.93
2019-03-23T11:41:03.242Z,16.33
2019-03-23T11:43:31.235Z,17.93
2019-03-23T11:45:59.363Z,17.40
2019-03-23T11:48:27.366Z,24.67
2019-03-23T11:50:55.460Z,17.97
2019-03-23T11:53:23.721Z,44.63
2019-03-23T11:55:51.802Z,18.03
2019-03-23T11:58:19.864Z,18.20
2019-03-23T12:00:48.642Z,16.93
2019-03-23T12:03:16.788Z,16.57
2019-03-23T12:05:48.893Z,16.27
2019-03-23T12:08:16.975Z,16.50
2019-03-23T12:10:46.216Z,15.63
2019-03-23T12:13:14.491Z,16.07
2019-03-23T12:15:42.524Z,16.53
2019-03-23T12:18:10.975Z,16.33
2019-03-23T12:20:40.179Z,16.47
2019-03-23T12:23:08.477Z,17.10
2019-03-23T12:25:36.621Z,15.37
2019-03-23T12:28:05.484Z,16.20
2019-03-23T12:30:34.361Z,15.43
2019-03-23T12:33:02.315Z,16.67
2019-03-23T12:35:30.297Z,16.37
2019-03-23T12:37:58.013Z,14.50
2019-03-23T12:40:28.001Z,15.20
2019-03-23T12:42:55.989Z,17.00
2019-03-23T12:45:24.030Z,17.60
2019-03-23T12:47:51.998Z,17.63
2019-03-23T12:50:20.244Z,17.57
2019-03-23T12:52:48.277Z,17.67
2019-03-23T12:55:16.165Z,17.97
2019-03-23T12:57:44.140Z,17.57
2019-03-23T13:00:12.995Z,17.90
2019-03-23T13:02:42.166Z,17.57
2019-03-23T13:05:52.149Z,17.80
2019-03-23T13:09:06.368Z,19.20
2019-03-23T13:11:36.016Z,17.97
2019-03-23T13:17:16.400Z,17.80
2019-03-23T13:20:26.840Z,17.27
2019-03-23T13:22:54.974Z,17.17
2019-03-23T13:25:24.665Z,16.77
2019-03-23T13:27:53.280Z,18.30
2019-03-23T13:30:22.587Z,17.30
2019-03-23T13:32:51.051Z,17.83
2019-03-23T13:35:19.525Z,17.77
2019-03-23T13:37:48.493Z,17.93
2019-03-23T13:40:17.966Z,17.57
2019-03-23T13:42:47.083Z,15.90
2019-03-23T13:45:15.258Z,17.33
2019-03-23T13:47:43.220Z,17.13
2019-03-23T13:50:12.306Z,18.13
2019-03-23T13:52:40.454Z,16.77
2019-03-23T13:55:13.983Z,14.93
2019-03-23T13:58:08.604Z,17.80
2019-03-23T14:00:36.803Z,14.53
2019-03-23T14:03:05.201Z,17.97
2019-03-23T14:05:33.310Z,18.57
2019-03-23T14:08:01.324Z,18.47
2019-03-23T14:10:29.471Z,17.23
2019-03-23T14:12:57.582Z,17.07
2019-03-23T14:15:25.791Z,17.27
2019-03-23T14:17:53.809Z,15.50
2019-03-23T14:20:24.092Z,14.73
2019-03-23T14:22:51.998Z,14.73
2019-03-23T14:25:23.243Z,16.67
2019-03-23T14:27:52.086Z,16.57
2019-03-23T14:30:20.477Z,17.97
2019-03-23T14:32:48.701Z,17.27
2019-03-23T14:35:16.731Z,17.80
2019-03-23T14:37:44.650Z,18.47
2019-03-23T14:40:12.781Z,17.10
2019-03-23T14:42:40.749Z,18.63
2019-03-23T14:45:09.311Z,16.80
2019-03-23T14:47:37.182Z,14.97
2019-03-23T14:50:05.729Z,16.67
2019-03-23T14:52:33.688Z,15.70
2019-03-23T14:55:01.668Z,15.80
2019-03-23T14:57:29.665Z,14.83
2019-03-23T14:59:57.557Z,16.93
2019-03-23T15:02:25.517Z,16.93
2019-03-23T15:04:54.271Z,15.53
2019-03-23T15:07:22.046Z,17.10
2019-03-23T15:09:49.841Z,15.53
2019-03-23T15:12:25.289Z,16.73
2019-03-23T15:14:53.393Z,16.13
2019-03-23T15:17:21.529Z,16.07
2019-03-23T15:19:49.541Z,16.93
2019-03-23T15:22:17.533Z,14.40
2019-03-23T15:24:45.691Z,16.57
2019-03-23T15:27:13.754Z,15.33
2019-03-23T15:29:41.811Z,15.07
2019-03-23T15:32:11.422Z,16.20
2019-03-23T15:34:39.530Z,16.40
2019-03-23T15:37:07.571Z,17.27
2019-03-23T15:39:35.843Z,15.27
2019-03-23T15:42:03.793Z,17.13
2019-03-23T15:44:32.053Z,16.53
2019-03-23T15:47:00.442Z,16.80
2019-03-23T15:49:31.139Z,15.83
2019-03-23T15:51:59.858Z,15.80
2019-03-23T15:54:28.023Z,15.57
2019-03-23T15:56:58.563Z,16.87
2019-03-23T16:02:54.891Z,14.00
2019-03-23T16:05:22.905Z,14.83
2019-03-23T16:07:51.173Z,14.23
2019-03-23T16:10:19.268Z,15.87
2019-03-23T16:12:47.444Z,17.90
2019-03-23T16:15:16.007Z,18.67
2019-03-23T16:17:44.414Z,20.20
2019-03-23T16:20:14.491Z,20.23
2019-03-23T16:22:42.599Z,20.97
2019-03-23T16:25:10.584Z,18.13
2019-03-23T16:27:38.693Z,20.17
2019-03-23T16:30:08.196Z,19.23
2019-03-23T16:32:36.661Z,18.20
2019-03-23T16:35:05.419Z,19.13
2019-03-23T16:37:33.464Z,19.60
2019-03-23T16:40:01.378Z,17.30
2019-03-23T16:42:29.520Z,18.57
2019-03-23T16:44:57.390Z,18.27
2019-03-23T16:47:25.490Z,19.30
2019-03-23T16:49:53.393Z,19.17
2019-03-23T16:52:22.125Z,19.57
2019-03-23T16:54:50.325Z,19.80
2019-03-23T16:57:18.432Z,20.57
2019-03-23T16:59:46.562Z,19.57
2019-03-23T17:02:17.716Z,18.97
2019-03-23T17:04:45.738Z,18.90
2019-03-23T17:07:13.779Z,20.63
2019-03-23T17:09:42.046Z,19.50
2019-03-23T17:12:10.210Z,20.17
2019-03-23T17:14:38.378Z,19.60
2019-03-23T17:19:48.662Z,18.83
2019-03-23T17:22:16.708Z,19.83
2019-03-23T17:24:44.865Z,19.50
2019-03-23T17:27:13.734Z,27.23
2019-03-23T17:29:43.378Z,22.43
2019-03-23T17:32:11.564Z,22.10
2019-03-23T17:34:39.770Z,20.67
2019-03-23T17:37:07.816Z,20.77
2019-03-23T17:39:36.085Z,21.37
2019-03-23T17:42:06.336Z,21.57
2019-03-23T17:44:38.957Z,21.37
2019-03-23T17:47:07.299Z,21.90
2019-03-23T17:49:35.478Z,23.90
2019-03-23T17:52:03.692Z,21.80
2019-03-23T17:54:31.666Z,21.17
2019-03-23T17:56:59.856Z,23.27
2019-03-23T17:59:27.762Z,22.13
2019-03-23T18:01:55.694Z,21.63
2019-03-23T18:04:23.760Z,23.13
2019-03-23T18:06:53.064Z,22.83
2019-03-23T18:09:49.925Z,22.27
2019-03-23T18:12:18.119Z,22.63
2019-03-23T18:14:46.095Z,22.90
2019-03-23T18:19:48.404Z,24.00
2019-03-23T18:22:16.429Z,22.97
2019-03-23T18:24:44.523Z,23.17
2019-03-23T18:27:15.018Z,23.17
2019-03-23T18:29:43.337Z,24.53
2019-03-23T18:32:11.491Z,22.33
2019-03-23T18:34:39.566Z,24.07
2019-03-23T18:37:07.628Z,24.03
2019-03-23T18:39:36.207Z,24.60
2019-03-23T18:42:04.316Z,24.93
2019-03-23T18:44:33.283Z,25.43
2019-03-23T18:47:04.723Z,25.87
2019-03-23T18:49:32.857Z,26.23
2019-03-23T18:52:01.112Z,26.57
2019-03-23T18:54:29.177Z,25.10
2019-03-23T18:56:57.377Z,26.00
2019-03-23T18:59:27.142Z,24.07
2019-03-23T19:01:55.413Z,23.77
2019-03-23T19:04:23.439Z,24.90
2019-03-23T19:06:51.423Z,27.80
2019-03-23T19:09:19.476Z,26.83
2019-03-23T19:12:04.192Z,24.23
2019-03-23T19:19:41.071Z,26.10
2019-03-23T19:22:09.146Z,25.43
2019-03-23T19:24:37.218Z,25.97
2019-03-23T19:27:05.262Z,25.87
2019-03-23T19:29:33.251Z,26.30
2019-03-23T19:32:02.024Z,26.53
2019-03-23T19:34:30.251Z,27.50
2019-03-23T19:36:58.567Z,27.47
2019-03-23T19:39:26.850Z,25.33
2019-03-23T19:41:55.088Z,26.53
2019-03-23T19:44:23.288Z,26.87
2019-03-23T19:46:52.437Z,26.17
2019-03-23T19:49:20.807Z,26.20
2019-03-23T19:51:52.935Z,27.03
2019-03-23T19:54:21.049Z,27.30
2019-03-23T19:56:49.268Z,27.53
2019-03-23T19:59:17.389Z,26.57
2019-03-23T20:01:45.412Z,26.17
2019-03-23T20:04:13.764Z,25.90
2019-03-23T20:06:42.118Z,26.53
2019-03-23T20:09:10.205Z,25.43
2019-03-23T20:11:38.222Z,26.57
2019-03-23T20:14:06.700Z,26.70
2019-03-23T20:16:34.826Z,27.73
2019-03-23T20:19:03.106Z,26.13
2019-03-23T20:21:31.047Z,26.30
2019-03-23T20:23:58.980Z,26.80
2019-03-23T20:26:27.090Z,25.90
2019-03-23T20:28:55.036Z,27.03
2019-03-23T20:31:23.033Z,26.33
2019-03-23T20:33:51.139Z,27.20
2019-03-23T20:36:19.210Z,26.07
2019-03-23T20:38:47.362Z,25.90
2019-03-23T20:41:15.475Z,25.93
2019-03-23T20:43:43.727Z,25.80
2019-03-23T20:46:13.173Z,26.77
2019-03-23T20:48:42.028Z,27.00
2019-03-23T20:51:10.925Z,26.83
2019-03-23T20:53:39.289Z,26.73
2019-03-23T20:56:07.244Z,27.20
2019-03-23T20:58:36.182Z,25.03
2019-03-23T21:01:04.333Z,23.20
2019-03-23T21:03:32.345Z,24.43
2019-03-23T21:06:00.355Z,24.13
2019-03-23T21:08:28.609Z,24.47
2019-03-23T21:10:56.724Z,25.30
2019-03-23T21:13:24.852Z,25.10
2019-03-23T21:15:52.968Z,23.10
2019-03-23T21:18:21.040Z,24.13
2019-03-23T21:20:49.212Z,24.30
2019-03-23T21:23:17.367Z,22.47
2019-03-23T21:25:45.402Z,22.50
2019-03-23T21:28:13.639Z,24.00
2019-03-23T21:30:42.074Z,22.77
2019-03-23T21:33:09.955Z,23.27
2019-03-23T21:35:38.220Z,23.07
2019-03-23T21:38:06.333Z,24.63
2019-03-23T21:40:35.218Z,23.73
2019-03-23T21:43:03.556Z,24.73
2019-03-23T21:45:31.614Z,22.73
2019-03-23T21:47:59.718Z,25.07
2019-03-23T21:50:27.700Z,23.87
2019-03-23T21:52:55.759Z,23.10
2019-03-23T21:55:23.768Z,23.93
2019-03-23T21:57:51.731Z,23.93
2019-03-23T22:00:48.671Z,22.83
2019-03-23T22:03:17.484Z,23.03
2019-03-23T22:05:45.552Z,23.37
2019-03-23T22:08:13.782Z,23.63
2019-03-23T22:10:41.970Z,22.20
2019-03-23T22:13:13.113Z,19.73
2019-03-23T22:15:41.228Z,19.77
2019-03-23T22:18:09.372Z,20.17
2019-03-23T22:20:37.592Z,19.13
2019-03-23T22:23:05.581Z,19.53
2019-03-23T22:25:34.659Z,19.83
2019-03-23T22:28:02.654Z,19.37
2019-03-23T22:30:30.648Z,19.90
2019-03-23T22:32:58.677Z,19.90
2019-03-23T22:35:26.863Z,19.33
2019-03-23T22:37:54.778Z,18.47
2019-03-23T22:40:22.718Z,17.47
2019-03-23T22:42:50.642Z,17.80
2019-03-23T22:45:18.735Z,17.60
2019-03-23T22:47:46.585Z,18.53
2019-03-23T22:50:14.912Z,17.60
2019-03-23T22:52:44.174Z,17.03
2019-03-23T22:55:12.068Z,19.20
2019-03-23T22:57:40.114Z,18.97
2019-03-23T23:00:11.242Z,17.23
2019-03-23T23:02:39.266Z,17.60
2019-03-23T23:05:07.944Z,19.77
2019-03-23T23:07:35.855Z,19.63
2019-03-23T23:10:05.270Z,19.30
2019-03-23T23:12:33.279Z,19.23
2019-03-23T23:15:04.728Z,18.20
2019-03-23T23:17:30.986Z,18.80
2019-03-23T23:19:58.987Z,19.37
2019-03-23T23:22:27.015Z,18.67
2019-03-23T23:24:55.006Z,19.43
2019-03-23T23:27:22.987Z,18.60
2019-03-23T23:29:50.887Z,19.67
2019-03-23T23:32:18.863Z,18.67
2019-03-23T23:34:46.778Z,19.60
2019-03-23T23:37:14.788Z,18.70
2019-03-23T23:39:42.781Z,17.80
2019-03-23T23:42:10.611Z,18.50
2019-03-23T23:44:38.601Z,17.97
2019-03-23T23:47:06.554Z,17.53
2019-03-23T23:49:34.510Z,17.07
2019-03-23T23:52:02.558Z,17.33
2019-03-23T23:54:30.362Z,17.07
2019-03-23T23:56:58.351Z,18.13
2019-03-23T23:59:27.816Z,16.67
